Latest Weather Observations for Nhill Aerodrome

IDV60801

Issued at 6:02 pm EST Wednesday 6 May 2015 (issued every 30 minutes, with the page automatically refreshed every 10 minutes)

About weather observations | Map of weather stations | Latest weather observations for VIC | Other Formats
Station Details ID: 078015 Name: NHILL AERODROME Lat: -36.31 Lon: 141.65 Height: 138.9 m
Data from the previous 72 hours. | See also: Recent months at Nhill Aerodrome
Date/Time
EST
Temp
°C
App
Temp
°C
Dew
Point
Rel
Hum
%
Delta-T
°C
Wind Press
QNH
hPa
Press
MSL
hPa
Rain
since 9 am
mm
Dir
 
Spd
km/h
Gust
km/h
Spd
kts
Gust
kts
06/06:00pm 13.2 7.1 6.8 65 3.1 W 28 39 15 21 1017.1 1017.1 1.4
06/05:30pm 13.3 6.9 7.1 66 3.0 W 30 43 16 23 1016.9 1016.9 1.4
06/05:10pm 13.5 6.7 7.1 65 3.1 WSW 32 50 17 27 1016.7 1016.7 1.4
06/05:00pm 13.5 6.9 7.7 68 2.9 WSW 32 46 17 25 1016.7 1016.7 1.4
06/04:30pm 14.1 6.9 7.6 65 3.2 WSW 35 44 19 24 1016.4 1016.4 1.4
06/04:00pm 14.4 8.5 9.0 70 2.8 WSW 30 39 16 21 1016.2 1016.2 1.4
06/03:30pm 14.0 7.9 9.8 76 2.2 WSW 32 43 17 23 1016.1 1016.1 1.4
06/03:00pm 14.4 9.6 11.6 83 1.5 WSW 28 39 15 21 1015.8 1015.8 1.4
06/02:30pm 13.4 8.2 13.4 100 0.0 W 33 41 18 22 1015.9 1015.9 1.4
06/02:00pm 13.4 8.3 13.2 99 0.1 W 32 44 17 24 1015.5 1015.5 1.2
06/01:30pm 13.2 7.4 12.7 97 0.3 W 35 46 19 25 1015.6 1015.6 0.6
06/01:00pm 14.4 7.8 11.2 81 1.7 W 37 50 20 27 1015.6 1015.6 0.4
06/12:30pm 13.1 8.4 13.1 100 0.0 WNW 30 35 16 19 1016.2 1016.2 0.4
06/12:00pm 14.0 7.0 10.0 77 2.1 WNW 37 46 20 25 1016.1 1016.1 0.0
06/11:35am 15.1 8.2 8.8 66 3.2 WNW 35 54 19 29 1016.1 1016.1 0.0
06/11:30am 15.5 7.9 9.0 65 3.4 WNW 39 56 21 30 1016.0 1016.0 0.0
06/11:11am 14.4 7.8 8.6 68 2.9 WNW 33 52 18 28 1016.2 1016.2 0.0
06/11:00am 14.1 7.5 8.7 70 2.7 WNW 33 48 18 26 1016.2 1016.2 0.0
06/10:30am 12.5 7.2 9.7 83 1.4 WNW 28 43 15 23 1016.2 1016.2 0.0
06/10:00am 12.1 6.2 9.1 82 1.5 NW 30 41 16 22 1016.2 1016.2 0.0
06/09:30am 11.3 6.0 9.9 91 0.7 NW 28 35 15 19 1016.0 1016.0 0.0
06/09:00am 10.1 5.2 9.9 99 0.1 NW 26 32 14 17 1015.8 1015.8 1.2
06/08:30am 8.8 4.9 8.8 100 0.0 NNW 19 24 10 13 1015.6 1015.6 1.2
06/08:00am 8.3 4.3 8.3 100 0.0 NNW 19 22 10 12 1015.2 1015.2 1.2
06/07:30am 8.5 4.4 8.5 100 0.0 NW 20 26 11 14 1014.9 1014.9 1.2
06/07:00am 8.2 4.6 8.2 100 0.0 NW 17 22 9 12 1014.6 1014.6 1.2
06/06:30am 8.1 4.1 8.1 100 0.0 NW 19 22 10 12 1014.4 1014.4 1.2
06/06:00am 8.3 4.3 8.3 100 0.0 NW 19 24 10 13 1014.2 1014.2 1.2
06/05:30am 8.2 4.5 8.1 99 0.0 NW 17 24 9 13 1013.9 1013.9 1.2
06/05:00am 7.7 3.5 7.6 99 0.0 NW 19 22 10 12 1013.4 1013.4 1.2
06/04:30am 7.8 3.7 7.8 100 0.0 NW 19 22 10 12 1013.2 1013.2 1.2
06/04:00am 7.4 3.2 7.4 100 0.0 NW 19 22 10 12 1012.9 1013.0 1.2
06/03:30am 7.6 3.8 7.5 99 0.0 NW 17 20 9 11 1013.0 1013.1 1.2
06/03:00am 7.7 4.7 7.6 99 0.0 NW 13 19 7 10 1013.2 1013.2 1.2
06/02:30am 7.6 3.4 7.5 99 0.0 NW 19 24 10 13 1013.3 1013.3 1.2
06/02:00am 7.7 3.9 7.6 99 0.0 NW 17 22 9 12 1013.2 1013.2 1.2
06/01:30am 8.0 3.6 7.6 97 0.2 NW 20 28 11 15 1013.0 1013.1 1.2
06/01:00am 8.0 4.2 7.6 97 0.2 NW 17 24 9 13 1012.9 1013.0 1.2
06/12:30am 8.2 4.0 7.6 96 0.3 NW 19 24 10 13 1012.7 1012.8 1.2
06/12:00am 8.4 4.2 7.6 95 0.4 WNW 19 26 10 14 1012.6 1012.7 1.2
 
Date/Time
EST
Temp
°C
App
Temp
°C
Dew
Point
Rel
Hum
%
Delta-T
°C
Wind Press
QNH
hPa
Press
MSL
hPa
Rain
since 9 am
mm
Dir
 
Spd
km/h
Gust
km/h
Spd
kts
Gust
kts
05/11:30pm 8.5 3.6 6.8 89 0.8 NW 22 30 12 16 1012.5 1012.6 1.0
05/11:00pm 8.7 3.9 7.2 90 0.7 NW 22 30 12 16 1012.2 1012.3 1.0
05/10:30pm 8.7 4.3 7.3 91 0.7 NW 20 26 11 14 1012.0 1012.1 1.0
05/10:00pm 8.9 4.8 7.7 92 0.6 WNW 19 26 10 14 1012.1 1012.2 1.0
05/09:30pm 9.1 5.2 7.2 88 0.9 WNW 17 24 9 13 1011.7 1011.8 1.0
05/09:00pm 9.5 5.0 7.1 85 1.1 NW 20 28 11 15 1011.7 1011.8 1.0
05/08:30pm 9.6 4.8 5.8 77 1.8 WNW 20 30 11 16 1011.2 1011.2 1.0
05/08:00pm 10.1 3.8 5.9 75 2.0 WNW 28 35 15 19 1010.9 1010.9 1.0
05/07:30pm 10.7 6.0 5.9 72 2.2 NW 20 28 11 15 1010.7 1010.7 1.0
05/07:00pm 10.4 5.2 5.4 71 2.3 WNW 22 33 12 18 1010.2 1010.2 1.0
05/06:30pm 11.0 4.2 4.9 66 2.8 WNW 30 39 16 21 1009.4 1009.4 1.0
05/06:00pm 11.8 3.3 5.0 63 3.1 W 39 61 21 33 1009.0 1009.0 1.0
05/05:55pm 12.2 3.9 4.4 59 3.6 W 37 59 20 32 1008.9 1008.9 1.0
05/05:30pm 12.1 3.4 4.1 58 3.6 W 39 56 21 30 1008.4 1008.4 1.0
05/05:16pm 13.0 5.2 4.9 58 3.8 W 35 56 19 30 1008.1 1008.1 1.0
05/05:00pm 12.3 5.2 5.7 64 3.1 W 32 41 17 22 1008.0 1008.0 1.0
05/04:30pm 12.8 3.2 4.5 57 3.8 W 44 59 24 32 1007.7 1007.7 1.0
05/04:05pm 13.0 3.7 4.9 58 3.8 W 43 61 23 33 1007.3 1007.3 1.0
05/04:00pm 12.5 2.0 5.4 62 3.3 W 50 69 27 37 1007.3 1007.3 1.0
05/03:55pm 12.8 2.6 5.0 59 3.6 W 48 69 26 37 1007.2 1007.2 1.0
05/03:37pm 13.8 6.1 5.2 56 4.1 W 35 54 19 29 1006.7 1006.7 1.0
05/03:30pm 13.4 4.5 5.1 57 3.9 W 41 54 22 29 1006.6 1006.6 1.0
05/03:00pm 14.0 4.1 4.9 54 4.3 W 46 65 25 35 1006.0 1006.0 1.0
05/02:53pm 13.9 5.0 5.3 56 4.1 W 41 63 22 34 1005.8 1005.8 1.0
05/02:30pm 12.7 3.7 6.5 66 3.0 W 43 59 23 32 1005.8 1005.8 1.0
05/02:06pm 13.6 3.2 6.2 61 3.6 W 50 74 27 40 1005.0 1005.0 0.8
05/02:00pm 14.1 3.4 4.7 53 4.4 WNW 50 65 27 35 1005.0 1005.0 0.8
05/01:35pm 14.2 4.0 5.0 54 4.3 W 48 67 26 36 1004.5 1004.5 0.8
05/01:30pm 14.1 3.4 4.7 53 4.4 W 50 67 27 36 1004.3 1004.3 0.8
05/01:14pm 14.1 2.9 4.1 51 4.6 WNW 52 70 28 38 1004.2 1004.2 0.8
05/01:00pm 14.3 2.8 4.6 52 4.5 WNW 54 69 29 37 1004.1 1004.1 0.8
05/12:34pm 14.0 4.1 6.6 61 3.6 W 48 67 26 36 1004.0 1004.0 0.8
05/12:30pm 13.8 4.6 6.4 61 3.6 W 44 61 24 33 1004.2 1004.2 0.8
05/12:05pm 12.3 4.4 7.8 74 2.2 WNW 39 59 21 32 1004.3 1004.3 0.8
05/12:00pm 11.6 4.8 7.7 77 1.9 W 33 46 18 25 1004.5 1004.5 0.8
05/11:30am 10.4 -0.1 7.5 82 1.4 W 52 74 28 40 1004.4 1004.4 0.6
05/11:16am 12.1 2.6 6.6 69 2.6 WNW 46 65 25 35 1003.9 1003.9 0.4
05/11:00am 11.8 3.0 8.1 78 1.8 WNW 44 59 24 32 1003.7 1003.7 0.4
05/10:30am 10.7 1.9 8.1 84 1.3 WNW 44 63 24 34 1003.7 1003.7 0.4
05/10:05am 10.7 2.0 8.6 87 1.0 NW 44 67 24 36 1003.3 1003.3 0.4
05/10:00am 10.9 2.3 8.1 83 1.4 WNW 43 59 23 32 1003.2 1003.2 0.4
05/09:51am 11.1 3.9 7.8 80 1.6 NW 35 56 19 30 1003.1 1003.1 0.4
05/09:30am 10.3 3.3 8.4 88 0.9 WNW 35 50 19 27 1002.8 1002.8 0.4
05/09:15am 10.1 1.9 8.2 88 0.9 NW 41 59 22 32 1002.9 1002.9 0.4
05/09:00am 10.4 2.5 7.8 84 1.3 NW 39 56 21 30 1002.7 1002.7 1.4
05/08:57am 10.4 2.8 7.5 82 1.4 NW 37 56 20 30 1002.6 1002.6 1.4
05/08:30am 10.0 2.9 9.4 96 0.3 WNW 37 61 20 33 1002.9 1002.9 1.2
05/08:27am 10.7 4.0 9.8 94 0.5 WNW 35 61 19 33 1002.9 1002.9 1.0
05/08:26am 11.0 4.9 9.6 91 0.7 WNW 32 50 17 27 1002.9 1002.9 0.6
05/08:00am 11.4 4.8 8.6 83 1.4 NW 33 46 18 25 1002.0 1002.0 0.2
05/07:30am 11.7 5.2 8.9 83 1.4 NW 33 46 18 25 1002.0 1002.0 0.2
05/07:00am 11.8 4.5 8.8 82 1.5 WNW 37 57 20 31 1002.1 1002.1 0.2
05/06:32am 11.9 5.1 9.1 83 1.4 WNW 35 56 19 30 1001.9 1001.9 0.2
05/06:30am 11.8 5.1 9.5 86 1.2 WNW 35 52 19 28 1001.9 1001.9 0.2
05/06:26am 11.9 5.3 10.0 88 1.0 WNW 35 54 19 29 1002.0 1002.0 0.2
05/06:00am 12.0 3.4 10.2 89 0.9 W 46 61 25 33 1001.8 1001.8 0.0
05/05:51am 12.9 4.5 9.0 77 2.0 WNW 43 65 23 35 1001.5 1001.5 0.0
05/05:49am 13.6 6.3 8.9 73 2.4 WNW 37 61 20 33 1001.7 1001.7 0.0
05/05:30am 14.7 6.6 7.0 60 3.8 NW 39 54 21 29 1001.1 1001.1 0.0
05/05:04am 15.1 6.1 7.4 60 3.8 NW 44 65 24 35 1001.1 1001.1 0.0
05/05:00am 15.1 6.1 7.4 60 3.9 NW 44 57 24 31 1001.0 1001.0 0.0
05/04:36am 15.3 9.0 9.7 69 2.9 NW 33 52 18 28 1001.0 1001.0 0.0
05/04:30am 15.2 9.1 9.8 70 2.8 NW 32 44 17 24 1001.0 1001.0 0.0
05/04:00am 16.2 9.7 8.9 62 3.8 WNW 33 52 18 28 1001.2 1001.2 0.0
05/03:30am 16.9 8.7 8.3 57 4.4 WNW 41 59 22 32 1001.8 1001.8 0.0
05/03:07am 17.8 11.5 7.5 51 5.2 WNW 30 48 16 26 1001.7 1001.7 0.0
05/03:00am 18.0 11.1 7.4 50 5.4 WNW 33 50 18 27 1001.7 1001.7 0.0
05/02:30am 18.4 11.1 7.2 48 5.7 WNW 35 57 19 31 1001.9 1001.9 0.0
05/02:21am 18.7 12.9 7.8 49 5.6 WNW 28 52 15 28 1002.0 1002.0 0.0
05/02:00am 18.8 11.9 8.7 52 5.3 W 35 46 19 25 1002.3 1002.3 0.0
05/01:30am 19.3 13.5 6.1 42 6.6 NW 26 33 14 18 1002.3 1002.3 0.0
05/01:00am 18.7 15.0 6.5 45 6.1 NNW 15 22 8 12 1002.0 1002.0 0.0
05/12:30am 19.0 14.8 5.8 42 6.5 NW 17 20 9 11 1002.3 1002.3 0.0
05/12:00am 19.6 15.4 5.6 40 7.0 NNW 17 26 9 14 1002.2 1002.2 0.0
 
Date/Time
EST
Temp
°C
App
Temp
°C
Dew
Point
Rel
Hum
%
Delta-T
°C
Wind Press
QNH
hPa
Press
MSL
hPa
Rain
since 9 am
mm
Dir
 
Spd
km/h
Gust
km/h
Spd
kts
Gust
kts
04/11:30pm 19.4 14.6 5.8 41 6.8 NNW 20 30 11 16 1002.9 1002.9 0.0
04/11:00pm 20.3 15.3 6.3 40 7.1 N 22 37 12 20 1002.7 1002.7 0.0
04/10:30pm 21.2 16.0 5.5 36 7.8 N 22 41 12 22 1003.9 1003.9 0.0
04/10:00pm 20.9 16.1 5.7 37 7.6 N 20 30 11 16 1004.5 1004.5 0.0
04/09:30pm 20.9 16.2 6.1 38 7.5 N 20 33 11 18 1004.8 1004.8 0.0
04/09:00pm 20.6 15.8 5.8 38 7.4 N 20 32 11 17 1004.8 1004.8 0.0
04/08:30pm 20.5 15.8 6.1 39 7.2 N 20 32 11 17 1005.2 1005.2 0.0
04/08:00pm 20.2 15.6 5.8 39 7.2 N 19 33 10 18 1005.3 1005.3 0.0
04/07:30pm 20.1 16.3 5.7 39 7.2 NNE 15 26 8 14 1005.2 1005.2 0.0
04/07:00pm 20.1 15.8 5.4 38 7.3 NNE 17 32 9 17 1004.9 1004.9 0.0
04/06:30pm 20.8 16.5 5.2 36 7.7 NNE 17 26 9 14 1004.7 1004.7 0.0
04/06:00pm 21.4 16.7 5.3 35 8.1 NNE 19 30 10 16 1004.9 1004.9 0.0
04/05:30pm 22.4 17.8 5.4 33 8.5 NNE 19 30 10 16 1005.4 1005.4 0.0
04/05:00pm 22.7 17.8 5.2 32 8.8 N 20 35 11 19 1006.0 1006.0 0.0
04/04:30pm 23.6 18.9 6.0 32 9.0 N 20 33 11 18 1006.7 1006.7 0.0
04/04:00pm 23.2 18.1 6.0 33 8.8 N 22 39 12 21 1007.0 1007.0 0.0
04/03:30pm 23.1 18.0 6.0 33 8.7 N 22 35 12 19 1007.3 1007.3 0.0
04/03:00pm 23.0 18.4 6.7 35 8.4 N 20 33 11 18 1008.0 1008.0 0.0
04/02:30pm 23.2 19.0 7.3 36 8.3 N 19 32 10 17 1008.3 1008.3 0.0
04/02:00pm 23.1 18.3 7.2 36 8.3 N 22 35 12 19 1008.7 1008.7 0.0
04/01:30pm 22.6 17.8 7.2 37 8.0 N 22 37 12 20 1009.6 1009.6 0.0
04/01:00pm 22.5 17.1 7.9 39 7.7 N 26 43 14 23 1010.3 1010.3 0.0
04/12:30pm 21.7 16.7 7.9 41 7.2 N 24 35 13 19 1011.2 1011.2 0.0
04/12:00pm 20.9 16.2 7.9 43 6.8 N 22 35 12 19 1012.0 1012.1 0.0
04/11:30am 20.2 16.0 8.2 46 6.3 N 20 33 11 18 1012.5 1012.6 0.0
04/11:00am 19.3 15.5 8.9 51 5.5 N 19 30 10 16 1012.8 1012.9 0.0
04/10:30am 17.1 13.2 8.8 58 4.3 N 19 30 10 16 1013.3 1013.3 0.0
04/10:00am 15.5 11.6 8.5 63 3.6 NNE 19 32 10 17 1013.6 1013.6 0.0
04/09:30am 14.2 10.6 8.4 68 2.9 NNE 17 30 9 16 1014.1 1014.1 0.0
04/09:00am 12.5 9.2 8.0 74 2.2 NNE 15 24 8 13 1014.3 1014.3 0.0
04/08:30am 10.6 8.0 7.8 83 1.4 NNE 11 19 6 10 1014.6 1014.6 0.0
04/08:00am 9.0 6.8 7.8 92 0.6 NE 9 17 5 9 1014.6 1014.6 0.0
04/07:30am 8.4 6.1 7.5 94 0.4 NE 9 13 5 7 1014.8 1014.8 0.0
04/07:00am 8.0 6.0 6.9 93 0.5 NE 7 11 4 6 1015.0 1015.0 0.0
04/06:30am 7.7 5.8 6.6 93 0.5 NNE 6 7 3 4 1015.2 1015.2 0.0
04/06:00am 8.1 7.3 6.6 90 0.7 CALM 0 0 0 0 1015.4 1015.4 0.0
04/05:30am 8.9 7.4 7.0 88 0.9 NE 4 7 2 4 1015.4 1015.4 0.0
04/05:00am 9.0 6.8 7.8 92 0.6 NE 9 11 5 6 1015.3 1015.3 0.0
04/04:30am 7.8 5.9 6.7 93 0.5 NE 6 9 3 5 1015.3 1015.3 0.0
04/04:00am 8.6 7.8 6.6 87 0.9 CALM 0 6 0 3 1015.4 1015.4 0.0
04/03:30am 9.3 8.2 6.9 85 1.1 N 2 7 1 4 1015.6 1015.6 0.0
04/03:00am 9.4 8.4 7.2 86 1.0 NE 2 7 1 4 1015.7 1015.7 0.0
04/02:30am 9.5 7.5 7.1 85 1.1 NE 7 11 4 6 1016.0 1016.0 0.0
04/02:00am 9.7 7.4 7.5 86 1.1 NE 9 17 5 9 1016.1 1016.1 0.0
04/01:30am 9.5 7.2 7.4 87 1.0 NE 9 13 5 7 1016.5 1016.5 0.0
04/01:00am 8.9 8.4 7.7 92 0.6 CALM 0 6 0 3 1016.9 1016.9 0.0
04/12:30am 7.4 6.5 6.0 91 0.6 CALM 0 0 0 0 1017.1 1017.1 0.0
04/12:00am 8.5 7.8 6.8 89 0.8 CALM 0 6 0 3 1017.2 1017.2 0.0
 
Date/Time
EST
Temp
°C
App
Temp
°C
Dew
Point
Rel
Hum
%
Delta-T
°C
Wind Press
QNH
hPa
Press
MSL
hPa
Rain
since 9 am
mm
Dir
 
Spd
km/h
Gust
km/h
Spd
kts
Gust
kts
03/11:30pm 8.6 7.5 6.9 89 0.8 NE 2 7 1 4 1017.6 1017.7 0.0
03/11:00pm 9.7 8.8 7.8 88 0.9 NE 2 6 1 3 1017.9 1018.0 0.0
03/10:30pm 7.6 5.6 4.2 79 1.5 NE 4 6 2 3 1018.1 1018.2 0.0
03/10:00pm 9.7 7.5 6.4 80 1.5 ENE 7 9 4 5 1018.3 1018.4 0.0
03/09:30pm 9.9 7.6 5.5 74 2.0 ENE 7 9 4 5 1018.3 1018.4 0.0
03/09:00pm 9.7 7.1 5.9 77 1.8 ENE 9 11 5 6 1018.1 1018.2 0.0
03/08:30pm 10.3 7.7 6.3 76 1.9 ENE 9 11 5 6 1018.1 1018.2 0.0
03/08:00pm 12.3 10.3 7.0 70 2.6 ENE 7 9 4 5 1018.1 1018.2 0.0
03/07:30pm 12.4 11.6 6.5 67 2.8 CALM 0 0 0 0 1018.1 1018.2 0.0
03/07:00pm 13.0 12.1 6.1 63 3.3 CALM 0 6 0 3 1018.2 1018.3 0.0
03/06:30pm 13.8 13.1 7.1 64 3.3 CALM 0 0 0 0 1018.1 1018.2 0.0

Other Formats:

Comma delimited format used in spreadsheet applications
http://www.bom.gov.au/fwo/IDV60801/IDV60801.94827.axf

JavaScript Object Notation format (JSON) in row-major order
http://www.bom.gov.au/fwo/IDV60801/IDV60801.94827.json